Time;durP1;ratioP1;P1;durP2;ratioP2;P2;SDS_P1;SDS_P2;PMS_P1;PMS_P2;Temp;Humidity;BMP_temperature;BMP_pressure;BME280_temperature;BME280_humidity;BME280_pressure;Samples;Min_cycle;Max_cycle;Signal;HPM_P1;HPM_P2
2024/01/22 00:00:28;;;;;;;;;16.50;16.00;;;;;6.88;100.00;100444.81;5047328;28;11353;-65
2024/01/22 00:02:55;;;;;;;;;14.25;14.25;;;;;6.85;100.00;100469.28;5027509;28;12252;-65
2024/01/22 00:05:21;;;;;;;;;15.50;14.00;;;;;6.87;100.00;100468.06;5049666;28;11308;-67
2024/01/22 00:07:48;;;;;;;;;18.75;18.75;;;;;6.88;100.00;100467.06;5039899;28;11477;-67
2024/01/22 00:10:14;;;;;;;;;15.50;14.50;;;;;6.94;100.00;100492.28;5044200;28;11467;-67
2024/01/22 00:12:41;;;;;;;;;13.75;13.75;;;;;6.99;100.00;100473.00;5050382;28;11291;-65
2024/01/22 00:15:08;;;;;;;;;16.50;15.50;;;;;6.91;100.00;100464.03;5053269;28;11478;-69
2024/01/22 00:17:34;;;;;;;;;17.50;15.25;;;;;6.88;100.00;100469.72;5054930;28;11482;-67
2024/01/22 00:20:02;;;;;;;;;12.00;11.50;;;;;6.99;100.00;100468.50;5050745;28;11980;-69
2024/01/22 00:22:29;;;;;;;;;15.75;14.50;;;;;6.97;100.00;100443.78;5045448;28;12283;-67
2024/01/22 00:24:55;;;;;;;;;19.00;16.00;;;;;7.03;100.00;100452.91;5053884;28;11327;-69
2024/01/22 00:27:22;;;;;;;;;18.00;16.00;;;;;7.07;100.00;100459.56;5043411;28;12198;-69
2024/01/22 00:29:48;;;;;;;;;12.50;10.75;;;;;7.15;100.00;100438.06;5051412;28;11494;-69
2024/01/22 00:32:15;;;;;;;;;12.25;10.50;;;;;7.13;100.00;100432.06;5036639;28;11198;-67
2024/01/22 00:34:42;;;;;;;;;11.25;11.00;;;;;7.26;100.00;100432.28;5055996;28;10997;-68
2024/01/22 00:37:08;;;;;;;;;12.25;12.00;;;;;7.32;100.00;100449.44;5047971;28;11237;-69
2024/01/22 00:39:35;;;;;;;;;11.25;10.75;;;;;7.34;100.00;100423.34;5054109;28;11175;-69
2024/01/22 00:42:02;;;;;;;;;9.75;9.75;;;;;7.34;100.00;100402.75;5049622;28;11221;-68
2024/01/22 00:44:28;;;;;;;;;13.25;12.75;;;;;7.43;100.00;100424.91;5048966;28;11879;-69
2024/01/22 00:46:55;;;;;;;;;14.75;13.50;;;;;7.46;100.00;100405.81;5048554;28;11043;-69
2024/01/22 00:49:21;;;;;;;;;18.00;14.50;;;;;7.53;100.00;100413.91;5055458;28;10908;-64
2024/01/22 00:51:48;;;;;;;;;9.25;9.25;;;;;7.54;100.00;100404.88;5042875;28;10958;-69
2024/01/22 00:54:14;;;;;;;;;13.00;11.00;;;;;7.55;100.00;100398.50;5054299;28;10913;-69
2024/01/22 00:56:41;;;;;;;;;12.75;11.25;;;;;7.69;100.00;100387.75;5055903;28;10937;-69
2024/01/22 00:59:08;;;;;;;;;12.50;11.25;;;;;7.69;100.00;100379.72;5049714;28;10895;-67
2024/01/22 01:01:34;;;;;;;;;10.00;9.25;;;;;7.76;99.69;100389.69;5033312;28;11006;-70
2024/01/22 01:04:01;;;;;;;;;11.00;9.00;;;;;7.67;100.00;100381.78;5052017;28;11067;-70
2024/01/22 01:06:27;;;;;;;;;9.50;8.50;;;;;7.68;100.00;100391.47;5048528;28;11053;-69
2024/01/22 01:08:54;;;;;;;;;10.75;10.25;;;;;7.72;100.00;100378.53;5056412;28;11104;-68
2024/01/22 01:11:21;;;;;;;;;12.00;12.00;;;;;7.79;100.00;100374.09;5049346;28;11007;-66
2024/01/22 01:13:47;;;;;;;;;11.00;11.00;;;;;7.79;100.00;100365.22;5034094;28;11043;-66
2024/01/22 01:16:14;;;;;;;;;11.75;11.75;;;;;7.81;100.00;100366.69;5048120;28;11045;-65
2024/01/22 01:18:40;;;;;;;;;10.25;10.25;;;;;7.81;100.00;100352.44;5049351;28;11057;-66
2024/01/22 01:21:07;;;;;;;;;14.25;8.25;;;;;7.94;100.00;100333.88;5050223;28;10887;-66
2024/01/22 01:23:34;;;;;;;;;10.25;8.50;;;;;7.88;100.00;100318.53;5046830;28;11586;-66
2024/01/22 01:26:00;;;;;;;;;12.75;12.00;;;;;7.79;100.00;100320.50;5032617;28;10751;-66
2024/01/22 01:28:27;;;;;;;;;12.00;9.75;;;;;7.82;100.00;100312.09;5047189;28;10704;-66
2024/01/22 01:30:54;;;;;;;;;9.50;7.50;;;;;7.83;100.00;100300.34;5049206;28;10692;-64
2024/01/22 01:33:20;;;;;;;;;11.00;11.00;;;;;7.86;100.00;100297.28;5048522;28;10790;-69
2024/01/22 01:35:47;;;;;;;;;9.25;9.00;;;;;7.81;100.00;100291.66;5033347;28;10986;-67
2024/01/22 01:38:14;;;;;;;;;10.00;10.00;;;;;7.88;100.00;100291.72;5046186;28;11538;-69
2024/01/22 01:40:41;;;;;;;;;8.00;7.75;;;;;7.92;100.00;100271.56;5051702;28;10847;-66
2024/01/22 01:43:08;;;;;;;;;6.25;6.25;;;;;7.93;100.00;100262.50;5051234;28;10654;-66
2024/01/22 01:45:35;;;;;;;;;7.25;7.25;;;;;7.96;100.00;100263.97;5046546;28;10675;-66
2024/01/22 01:48:02;;;;;;;;;5.75;5.75;;;;;7.98;100.00;100262.78;5046565;28;10650;-67
2024/01/22 01:50:29;;;;;;;;;10.75;9.25;;;;;7.92;100.00;100232.19;5031341;28;10740;-67
2024/01/22 01:52:56;;;;;;;;;9.50;7.00;;;;;7.90;100.00;100252.19;5031121;28;10710;-67
2024/01/22 01:55:23;;;;;;;;;6.25;6.25;;;;;7.93;100.00;100233.84;5034897;28;10732;-67
2024/01/22 01:57:50;;;;;;;;;6.75;6.75;;;;;8.03;100.00;100230.03;5051189;28;10758;-65
2024/01/22 02:00:26;;;;;;;;;6.25;6.25;;;;;8.08;100.00;100235.66;5043301;28;10620;-67
2024/01/22 02:02:53;;;;;;;;;6.75;6.75;;;;;8.08;100.00;100208.84;5050791;28;11366;-67
2024/01/22 02:05:20;;;;;;;;;7.75;6.50;;;;;8.09;100.00;100179.16;5046661;28;10716;-68
2024/01/22 02:07:47;;;;;;;;;10.50;7.00;;;;;8.08;100.00;100235.66;5049250;28;10605;-63
2024/01/22 02:10:14;;;;;;;;;6.50;6.25;;;;;8.12;100.00;100189.50;5054120;28;10663;-67
2024/01/22 02:12:40;;;;;;;;;7.00;5.75;;;;;8.17;100.00;100189.72;5045337;28;10626;-68
2024/01/22 02:15:08;;;;;;;;;5.50;5.50;;;;;8.15;100.00;100167.66;5045191;28;10579;-67
2024/01/22 02:17:35;;;;;;;;;9.00;7.00;;;;;8.22;100.00;100158.81;5042401;28;10448;-66
2024/01/22 02:20:02;;;;;;;;;5.25;5.00;;;;;8.26;100.00;100168.13;5030988;28;10586;-66
2024/01/22 02:22:29;;;;;;;;;9.25;7.00;;;;;8.32;100.00;100154.78;5031538;28;10599;-66
2024/01/22 02:24:56;;;;;;;;;5.50;5.50;;;;;8.34;100.00;100151.91;5047082;28;10522;-66
2024/01/22 02:27:22;;;;;;;;;5.50;5.50;;;;;8.33;100.00;100129.63;5045353;28;10584;-68
2024/01/22 02:29:49;;;;;;;;;7.75;7.75;;;;;8.33;100.00;100110.84;5047698;28;10657;-66
2024/01/22 02:32:16;;;;;;;;;5.25;5.25;;;;;8.34;100.00;100135.81;5046172;28;10610;-66
2024/01/22 02:34:43;;;;;;;;;3.00;3.00;;;;;8.37;100.00;100117.50;5049346;28;10750;-66
2024/01/22 02:37:09;;;;;;;;;5.00;5.00;;;;;8.37;100.00;100101.41;5043956;28;10494;-64
2024/01/22 02:39:36;;;;;;;;;5.75;5.75;;;;;8.35;100.00;100137.47;5044885;28;10536;-64
2024/01/22 02:42:03;;;;;;;;;6.00;5.25;;;;;8.41;100.00;100132.19;5047477;28;10515;-64
2024/01/22 02:44:29;;;;;;;;;9.00;6.00;;;;;8.46;100.00;100138.78;5048750;28;10639;-65
2024/01/22 02:46:56;;;;;;;;;6.00;6.00;;;;;8.52;100.00;100113.88;5045578;28;10555;-64
2024/01/22 02:49:22;;;;;;;;;5.00;5.00;;;;;8.59;100.00;100114.75;5049700;28;10472;-63
2024/01/22 02:51:49;;;;;;;;;6.75;6.75;;;;;8.53;100.00;100078.81;5050307;28;10525;-66
2024/01/22 02:54:16;;;;;;;;;7.50;5.25;;;;;8.64;100.00;100104.25;5048435;28;10579;-66
2024/01/22 02:56:42;;;;;;;;;4.50;4.50;;;;;8.62;100.00;100098.22;5040200;28;11509;-65
2024/01/22 02:59:09;;;;;;;;;5.25;5.25;;;;;8.60;100.00;100097.63;5044784;28;10584;-65
2024/01/22 03:01:36;;;;;;;;;6.00;6.00;;;;;8.57;100.00;100098.00;5048671;28;10520;-64
2024/01/22 03:04:03;;;;;;;;;4.75;4.75;;;;;8.61;100.00;100072.44;5043678;28;10427;-66
2024/01/22 03:06:29;;;;;;;;;7.00;5.50;;;;;8.60;100.00;100092.25;5034464;28;10540;-68
2024/01/22 03:08:56;;;;;;;;;5.00;5.00;;;;;8.62;100.00;100058.00;5050452;28;11245;-66
2024/01/22 03:11:23;;;;;;;;;5.00;5.00;;;;;8.66;100.00;100061.94;5048714;28;10471;-65
2024/01/22 03:13:50;;;;;;;;;3.00;3.00;;;;;8.66;100.00;100070.78;5050300;28;10372;-68
2024/01/22 03:16:16;;;;;;;;;5.00;5.00;;;;;8.71;100.00;100091.69;5049264;28;11153;-65
2024/01/22 03:18:43;;;;;;;;;5.00;5.00;;;;;8.75;100.00;100050.00;5045531;28;10455;-66
2024/01/22 03:21:10;;;;;;;;;5.75;5.00;;;;;8.74;100.00;100075.16;5045801;28;10488;-66
2024/01/22 03:23:37;;;;;;;;;2.50;2.50;;;;;8.75;100.00;100068.78;5049938;28;10516;-67
2024/01/22 03:26:04;;;;;;;;;3.00;3.00;;;;;8.78;100.00;100060.31;5044830;28;10431;-65
2024/01/22 03:28:31;;;;;;;;;2.00;2.00;;;;;8.82;100.00;100061.56;5044569;28;10415;-66
2024/01/22 03:30:57;;;;;;;;;3.00;3.00;;;;;8.86;100.00;100060.13;5050207;28;10455;-65
2024/01/22 03:33:24;;;;;;;;;2.50;2.00;;;;;8.87;100.00;100077.06;5045835;28;10293;-63
2024/01/22 03:35:50;;;;;;;;;3.75;3.25;;;;;8.90;100.00;100044.47;5039228;28;10376;-66
2024/01/22 03:38:17;;;;;;;;;4.00;4.00;;;;;8.85;100.00;100079.97;5038069;28;11085;-68
2024/01/22 03:40:44;;;;;;;;;3.75;3.75;;;;;8.87;100.00;100052.91;5044651;28;10504;-68
2024/01/22 03:43:10;;;;;;;;;2.75;2.75;;;;;8.93;100.00;100046.75;5043266;28;10239;-68
2024/01/22 03:45:37;;;;;;;;;3.00;3.00;;;;;9.00;100.00;100055.66;5049824;28;10271;-68
2024/01/22 03:48:04;;;;;;;;;7.25;6.00;;;;;8.98;100.00;100032.72;5053658;28;10631;-67
2024/01/22 03:50:30;;;;;;;;;3.00;3.00;;;;;8.97;100.00;100033.75;5053752;28;10366;-68
2024/01/22 03:52:57;;;;;;;;;2.25;2.25;;;;;9.04;100.00;100035.41;5053103;28;10582;-67
2024/01/22 03:55:24;;;;;;;;;5.75;3.00;;;;;9.07;100.00;100026.09;5050491;28;10342;-68
2024/01/22 03:57:50;;;;;;;;;5.25;3.50;;;;;9.02;100.00;100052.75;5051006;28;10498;-68
2024/01/22 04:00:17;;;;;;;;;5.50;5.50;;;;;9.04;100.00;100034.59;5046770;28;10995;-68
2024/01/22 04:02:44;;;;;;;;;5.00;4.50;;;;;9.04;100.00;100031.91;5034063;28;10362;-67
2024/01/22 04:05:11;;;;;;;;;6.00;6.00;;;;;9.00;100.00;100038.72;5044174;28;10595;-67
2024/01/22 04:07:40;;;;;;;;;5.75;5.00;;;;;8.97;100.00;100021.16;5052044;28;10721;-68
2024/01/22 04:10:08;;;;;;;;;3.50;3.50;;;;;9.03;100.00;100030.22;5048207;28;10501;-68
2024/01/22 04:12:35;;;;;;;;;3.00;3.00;;;;;9.05;100.00;100036.25;5042791;28;10529;-68
2024/01/22 04:15:02;;;;;;;;;5.50;2.50;;;;;9.08;100.00;100025.91;5052120;28;10515;-67
2024/01/22 04:17:29;;;;;;;;;2.50;2.50;;;;;9.05;100.00;100004.84;5051609;28;10953;-67
2024/01/22 04:19:56;;;;;;;;;3.00;3.00;;;;;9.09;100.00;99986.47;5052533;28;10498;-67
2024/01/22 04:22:23;;;;;;;;;1.00;1.00;;;;;9.14;100.00;100035.00;5049765;28;10341;-67
2024/01/22 04:24:49;;;;;;;;;2.25;2.25;;;;;9.13;100.00;100019.94;5052930;28;10488;-68
2024/01/22 04:27:16;;;;;;;;;2.00;2.00;;;;;9.20;100.00;100020.78;5048290;28;10421;-67
2024/01/22 04:29:43;;;;;;;;;1.50;1.50;;;;;9.24;100.00;100007.78;5035684;28;11078;-67
2024/01/22 04:32:10;;;;;;;;;4.50;3.00;;;;;9.22;100.00;99994.53;5044613;28;10154;-66
2024/01/22 04:34:39;;;;;;;;;2.00;2.00;;;;;9.28;100.00;100022.44;5048752;28;10175;-67
2024/01/22 04:37:06;;;;;;;;;2.25;2.00;;;;;9.25;100.00;100018.28;5052525;28;10228;-67
2024/01/22 04:39:34;;;;;;;;;1.25;1.25;;;;;9.31;100.00;100036.25;5053352;28;10196;-67
2024/01/22 04:42:00;;;;;;;;;2.75;2.75;;;;;9.28;100.00;99976.78;5054048;28;10129;-66
2024/01/22 04:44:28;;;;;;;;;1.25;1.25;;;;;9.32;100.00;100024.50;5049428;28;10147;-67
2024/01/22 04:46:56;;;;;;;;;2.00;2.00;;;;;9.35;100.00;100042.03;5048366;28;10983;-68
2024/01/22 04:49:23;;;;;;;;;1.00;1.00;;;;;9.42;100.00;100029.44;5036164;28;10238;-68
2024/01/22 04:51:50;;;;;;;;;1.25;1.25;;;;;9.47;100.00;100024.28;5048597;28;10153;-67
2024/01/22 04:54:17;;;;;;;;;2.00;2.00;;;;;9.45;100.00;100025.53;5043745;28;10223;-67
2024/01/22 04:56:45;;;;;;;;;3.25;2.50;;;;;9.50;100.00;100050.72;5049052;28;10145;-67
2024/01/22 04:59:12;;;;;;;;;1.50;1.00;;;;;9.49;100.00;100006.09;5043149;28;10260;-68
2024/01/22 05:01:40;;;;;;;;;1.75;1.75;;;;;9.52;100.00;100021.81;5051089;28;10142;-67
2024/01/22 05:04:06;;;;;;;;;2.00;2.00;;;;;9.57;100.00;100048.06;5038260;28;10042;-68
2024/01/22 05:06:33;;;;;;;;;1.00;1.00;;;;;9.55;100.00;100031.31;5045965;28;10126;-67
2024/01/22 05:09:00;;;;;;;;;2.75;2.00;;;;;9.63;100.00;100028.41;5054570;28;10139;-67
2024/01/22 05:11:27;;;;;;;;;2.00;1.75;;;;;9.66;100.00;100050.31;5045851;28;10219;-68
2024/01/22 05:13:54;;;;;;;;;3.00;3.00;;;;;9.68;100.00;100042.03;5051147;28;10794;-68
2024/01/22 05:16:21;;;;;;;;;2.00;1.25;;;;;9.69;100.00;100038.34;5044351;28;10130;-67
2024/01/22 05:18:50;;;;;;;;;1.75;1.75;;;;;9.61;100.00;100047.44;5051939;28;10229;-67
2024/01/22 05:21:17;;;;;;;;;2.00;2.00;;;;;9.64;100.00;100056.91;5037468;28;10042;-67
2024/01/22 05:23:44;;;;;;;;;3.00;3.00;;;;;9.59;100.00;100024.47;5031511;28;10181;-67
2024/01/22 05:26:11;;;;;;;;;3.25;2.00;;;;;9.58;100.00;100015.59;5046932;28;10207;-67
2024/01/22 05:28:37;;;;;;;;;2.00;2.00;;;;;9.59;100.00;100027.16;5046204;28;10135;-67
2024/01/22 05:31:04;;;;;;;;;2.00;2.00;;;;;9.65;100.00;100029.03;5048783;28;10146;-67
2024/01/22 05:33:31;;;;;;;;;1.50;1.50;;;;;9.65;100.00;100042.47;5051542;28;10324;-68
2024/01/22 05:35:58;;;;;;;;;2.50;2.00;;;;;9.73;100.00;100038.75;5048801;28;10167;-67
2024/01/22 05:38:24;;;;;;;;;2.25;2.25;;;;;9.77;100.00;100013.94;5048085;28;10141;-67
2024/01/22 05:40:51;;;;;;;;;3.00;3.00;;;;;9.79;100.00;100027.97;5050094;28;11051;-68
2024/01/22 05:43:18;;;;;;;;;4.00;4.00;;;;;9.71;100.00;100046.19;5051297;28;10135;-68
2024/01/22 05:45:44;;;;;;;;;2.50;2.50;;;;;9.77;100.00;100019.31;5050235;28;10132;-67
2024/01/22 05:48:11;;;;;;;;;9.00;7.00;;;;;9.73;100.00;100038.75;5047673;28;10204;-68
2024/01/22 05:50:38;;;;;;;;;6.50;6.50;;;;;9.77;100.00;100035.44;5047812;28;10445;-67
2024/01/22 05:53:05;;;;;;;;;3.75;2.75;;;;;9.65;100.00;100047.84;5049437;28;10231;-68
2024/01/22 05:55:32;;;;;;;;;5.75;4.25;;;;;9.64;100.00;100044.34;5046617;28;10228;-68
2024/01/22 05:57:59;;;;;;;;;7.00;4.00;;;;;9.73;100.00;100052.19;5044288;28;10354;-66
2024/01/22 06:00:25;;;;;;;;;5.50;5.50;;;;;9.70;100.00;100079.47;5051314;28;10281;-67
2024/01/22 06:02:52;;;;;;;;;4.00;4.00;;;;;9.72;100.00;100048.66;5033121;28;10218;-67
2024/01/22 06:05:19;;;;;;;;;8.00;4.00;;;;;9.86;100.00;100062.91;5051185;28;10121;-68
2024/01/22 06:07:45;;;;;;;;;5.75;3.75;;;;;9.86;100.00;100062.91;5045814;28;10423;-67
2024/01/22 06:10:12;;;;;;;;;6.25;2.25;;;;;9.83;100.00;100066.84;5048823;28;10151;-67
2024/01/22 06:12:39;;;;;;;;;3.00;2.25;;;;;9.84;100.00;100065.81;5032882;28;10059;-67
2024/01/22 06:15:06;;;;;;;;;2.75;2.75;;;;;9.85;100.00;100069.34;5049215;28;10836;-67
2024/01/22 06:17:33;;;;;;;;;2.75;2.25;;;;;9.91;100.00;100066.63;5043738;28;9987;-67
2024/01/22 06:20:01;;;;;;;;;4.50;3.50;;;;;9.90;100.00;100066.84;5050938;28;10754;-68
2024/01/22 06:22:29;;;;;;;;;2.75;2.25;;;;;9.93;100.00;100065.59;5050331;28;10007;-66
2024/01/22 06:24:55;;;;;;;;;6.75;3.00;;;;;9.97;100.00;100075.72;5048135;28;10143;-67
2024/01/22 06:27:22;;;;;;;;;7.25;4.00;;;;;10.04;100.00;100073.00;5024710;28;10094;-68
2024/01/22 06:29:48;;;;;;;;;10.25;4.25;;;;;10.04;100.00;100070.31;5030778;28;10145;-68
2024/01/22 06:32:17;;;;;;;;;7.50;5.00;;;;;10.03;100.00;100071.38;5037671;28;10098;-67
2024/01/22 06:34:46;;;;;;;;;7.25;2.00;;;;;10.06;100.00;100054.81;5040860;28;9869;-66
2024/01/22 06:37:15;;;;;;;;;8.00;6.00;;;;;10.07;100.00;100072.59;5038776;28;9999;-69
2024/01/22 06:39:42;;;;;;;;;6.50;3.25;;;;;10.02;100.00;100077.78;5045459;28;10916;-66
2024/01/22 06:42:08;;;;;;;;;6.75;4.00;;;;;10.04;100.00;100068.47;5044956;28;10116;-67
2024/01/22 06:44:40;;;;;;;;;9.75;4.00;;;;;9.99;100.00;100065.56;5039249;28;10080;-65
2024/01/22 06:47:07;;;;;;;;;6.25;4.50;;;;;9.93;100.00;100062.91;5038171;28;10130;-67
2024/01/22 06:49:34;;;;;;;;;8.50;4.50;;;;;10.11;100.00;100057.69;5045356;28;10204;-68
2024/01/22 06:52:01;;;;;;;;;6.50;3.00;;;;;10.13;100.00;100069.09;5031513;28;10157;-68
2024/01/22 06:54:27;;;;;;;;;10.50;7.00;;;;;10.11;100.00;100085.41;5048097;28;10066;-68
2024/01/22 06:56:54;;;;;;;;;7.00;4.00;;;;;10.04;100.00;100089.97;5050021;28;10360;-67
2024/01/22 06:59:21;;;;;;;;;8.75;4.00;;;;;10.12;100.00;100083.53;5047620;28;10219;-67
2024/01/22 07:01:48;;;;;;;;;7.25;6.50;;;;;10.11;100.00;100100.72;5043391;28;10146;-68
2024/01/22 07:04:14;;;;;;;;;6.00;6.00;;;;;10.17;100.00;100081.06;5048946;28;10213;-68
2024/01/22 07:06:41;;;;;;;;;4.25;4.25;;;;;10.16;100.00;100099.03;5045812;28;10071;-69
2024/01/22 07:09:09;;;;;;;;;12.50;6.00;;;;;10.08;100.00;100090.38;5042637;28;10131;-67
2024/01/22 07:11:37;;;;;;;;;8.00;6.50;;;;;10.07;100.00;100105.69;5042673;28;10107;-67
2024/01/22 07:14:04;;;;;;;;;8.50;4.50;;;;;10.13;100.00;100112.13;5045390;28;10116;-66
2024/01/22 07:16:31;;;;;;;;;9.00;6.75;;;;;10.14;100.00;100119.97;5037005;28;10207;-66
2024/01/22 07:18:58;;;;;;;;;14.75;8.00;;;;;10.20;100.00;100134.41;5037206;28;10860;-67
2024/01/22 07:21:25;;;;;;;;;6.50;6.50;;;;;10.30;100.00;100129.50;5040677;28;11504;-64
2024/01/22 07:23:51;;;;;;;;;8.50;6.50;;;;;10.32;100.00;100131.97;5053461;28;10151;-68
2024/01/22 07:26:18;;;;;;;;;11.50;7.50;;;;;10.28;100.00;100125.34;5051702;28;10222;-66
2024/01/22 07:28:45;;;;;;;;;10.00;7.50;;;;;10.21;100.00;100132.56;5061216;28;10202;-67
2024/01/22 07:31:14;;;;;;;;;12.75;7.50;;;;;10.16;100.00;100146.63;5062951;28;11130;-67
2024/01/22 07:33:40;;;;;;;;;9.25;8.25;;;;;10.15;100.00;100161.13;5048327;28;10983;-67
2024/01/22 07:36:07;;;;;;;;;11.75;7.25;;;;;10.13;100.00;100157.84;5044721;28;10376;-67
2024/01/22 07:38:34;;;;;;;;;12.75;7.75;;;;;10.19;100.00;100166.91;5046861;28;10262;-68
2024/01/22 07:41:01;;;;;;;;;13.00;11.75;;;;;10.08;100.00;100146.84;5053275;28;10273;-68
2024/01/22 07:43:27;;;;;;;;;11.50;6.75;;;;;10.07;100.00;100154.09;5049390;28;10365;-68
2024/01/22 07:45:54;;;;;;;;;8.75;6.00;;;;;10.03;100.00;100171.69;5047680;28;10085;-67
2024/01/22 07:48:22;;;;;;;;;20.50;13.25;;;;;9.92;100.00;100169.59;5028022;28;12144;-68
2024/01/22 07:50:50;;;;;;;;;7.75;6.75;;;;;9.90;100.00;100175.19;5036102;28;10465;-68
2024/01/22 07:53:19;;;;;;;;;9.50;6.75;;;;;9.85;100.00;100176.84;5049132;28;10294;-67
2024/01/22 07:55:47;;;;;;;;;12.25;6.75;;;;;9.90;100.00;100190.50;5044586;28;10230;-67
2024/01/22 07:58:14;;;;;;;;;12.00;8.00;;;;;9.83;100.00;100197.72;5050148;28;10242;-68
2024/01/22 08:00:43;;;;;;;;;12.50;8.00;;;;;9.84;100.00;100205.59;5053768;28;10502;-68
2024/01/22 08:03:10;;;;;;;;;11.50;8.00;;;;;9.86;100.00;100194.63;5060150;28;10296;-68
2024/01/22 08:05:36;;;;;;;;;8.50;5.75;;;;;9.78;100.00;100213.66;5034878;28;10338;-67
2024/01/22 08:08:03;;;;;;;;;11.00;10.25;;;;;9.76;100.00;100229.13;5042840;28;11243;-68
2024/01/22 08:10:30;;;;;;;;;11.50;7.25;;;;;9.79;100.00;100218.81;5050824;28;10201;-68
2024/01/22 08:12:57;;;;;;;;;14.25;9.75;;;;;9.81;100.00;100229.38;5070948;28;11165;-67
2024/01/22 08:15:23;;;;;;;;;9.75;8.00;;;;;9.76;100.00;100226.44;5062226;28;10331;-67
2024/01/22 08:17:50;;;;;;;;;14.50;5.50;;;;;9.75;100.00;100231.00;5048264;28;10325;-68
2024/01/22 08:20:17;;;;;;;;;14.00;12.00;;;;;9.71;100.00;100228.94;5043905;28;10516;-68
2024/01/22 08:22:46;;;;;;;;;12.25;7.00;;;;;9.77;100.00;100244.25;5049149;28;10327;-67
2024/01/22 08:25:18;;;;;;;;;16.00;8.00;;;;;9.76;100.00;100238.03;5032510;28;10376;-67
2024/01/22 08:27:46;;;;;;;;;8.50;8.00;;;;;9.76;100.00;100242.56;5048934;28;10377;-67
2024/01/22 08:30:13;;;;;;;;;11.75;6.75;;;;;9.78;100.00;100262.03;5048467;28;10829;-68
2024/01/22 08:32:40;;;;;;;;;9.50;7.50;;;;;9.76;100.00;100251.47;5040320;28;10393;-68
2024/01/22 08:35:09;;;;;;;;;12.75;9.00;;;;;9.72;100.00;100265.50;5045793;28;10240;-68
2024/01/22 08:37:39;;;;;;;;;9.75;9.00;;;;;9.69;100.00;100274.81;5045858;28;10435;-68
2024/01/22 08:40:06;;;;;;;;;9.00;6.50;;;;;9.77;100.00;100282.72;5032268;28;10248;-68
2024/01/22 08:42:33;;;;;;;;;14.25;8.00;;;;;9.73;100.00;100276.06;5041493;28;10422;-68
2024/01/22 08:45:00;;;;;;;;;11.25;6.50;;;;;9.71;100.00;100278.13;5045564;28;10502;-68
2024/01/22 08:47:26;;;;;;;;;10.25;8.50;;;;;9.72;100.00;100284.31;5041841;28;10347;-67
2024/01/22 08:49:53;;;;;;;;;12.00;10.00;;;;;9.73;100.00;100278.78;5049256;28;10426;-69
2024/01/22 08:52:20;;;;;;;;;13.75;9.00;;;;;9.71;100.00;100288.06;5044974;28;10586;-68
2024/01/22 08:54:46;;;;;;;;;9.50;7.00;;;;;9.85;100.00;100292.44;5047115;28;10615;-68
2024/01/22 08:57:13;;;;;;;;;12.25;6.75;;;;;9.86;100.00;100289.53;5044758;28;10314;-68
2024/01/22 08:59:39;;;;;;;;;12.50;7.00;;;;;9.80;100.00;100302.97;5050792;28;10304;-68
2024/01/22 09:02:06;;;;;;;;;20.25;11.00;;;;;9.83;100.00;100302.56;5045394;28;10251;-67
2024/01/22 09:04:33;;;;;;;;;5.50;4.00;;;;;9.82;100.00;100309.81;5052067;28;10323;-67
2024/01/22 09:06:59;;;;;;;;;14.25;9.00;;;;;9.76;100.00;100315.97;5048165;28;10289;-68
2024/01/22 09:09:27;;;;;;;;;19.50;12.75;;;;;9.78;100.00;100330.06;5046786;28;10319;-68
2024/01/22 09:11:53;;;;;;;;;16.25;8.75;;;;;9.66;100.00;100327.09;5051742;28;10476;-68
2024/01/22 09:14:20;;;;;;;;;16.25;10.75;;;;;9.76;100.00;100332.09;5051721;28;10321;-68
2024/01/22 09:16:46;;;;;;;;;9.25;6.50;;;;;9.78;100.00;100330.06;5051846;28;10302;-67
2024/01/22 09:19:13;;;;;;;;;12.00;7.75;;;;;9.69;100.00;100336.63;5050508;28;10474;-67
2024/01/22 09:21:40;;;;;;;;;6.00;6.00;;;;;9.70;100.00;100330.22;5051564;28;10282;-68
2024/01/22 09:24:06;;;;;;;;;9.00;7.75;;;;;9.73;100.00;100334.38;5042244;28;10229;-68
2024/01/22 09:26:33;;;;;;;;;10.50;9.50;;;;;9.72;100.00;100328.16;5036100;28;10356;-68
2024/01/22 09:28:59;;;;;;;;;10.00;7.25;;;;;9.70;100.00;100330.22;5031708;28;10347;-67
2024/01/22 09:31:26;;;;;;;;;10.00;7.00;;;;;9.78;99.89;100331.91;5031377;28;10363;-71
2024/01/22 09:33:53;;;;;;;;;8.00;6.50;;;;;9.70;99.75;100346.34;5030260;28;10251;-68
2024/01/22 09:36:21;;;;;;;;;9.50;7.50;;;;;9.61;98.97;100344.88;5034649;28;10173;-68
2024/01/22 09:38:48;;;;;;;;;12.50;7.25;;;;;9.71;98.47;100361.44;5035871;28;10266;-66
2024/01/22 09:41:15;;;;;;;;;5.25;4.75;;;;;9.71;98.22;100372.19;5034623;28;10228;-66
2024/01/22 09:43:42;;;;;;;;;7.50;6.75;;;;;9.59;98.37;100371.09;5039748;28;10150;-67
2024/01/22 09:46:10;;;;;;;;;4.25;4.00;;;;;9.49;97.97;100374.16;5050537;28;10872;-65
2024/01/22 09:48:37;;;;;;;;;12.75;8.75;;;;;9.55;97.41;100372.53;5050445;28;10185;-65
2024/01/22 09:51:06;;;;;;;;;6.00;6.00;;;;;9.59;97.46;100401.47;5044406;28;10490;-66
2024/01/22 09:53:35;;;;;;;;;5.50;5.50;;;;;9.60;96.96;100411.22;5040342;28;10176;-68
2024/01/22 09:56:04;;;;;;;;;11.25;7.75;;;;;9.55;97.00;100402.09;5043692;28;10292;-67
2024/01/22 09:58:39;;;;;;;;;7.50;7.50;;;;;9.56;96.60;100409.09;5033347;28;10507;-66
2024/01/22 10:01:10;;;;;;;;;13.75;5.00;;;;;9.54;96.40;100421.94;5040019;28;10315;-66
2024/01/22 10:03:39;;;;;;;;;11.00;8.00;;;;;9.47;96.15;100431.78;5050412;28;10208;-66
2024/01/22 10:06:06;;;;;;;;;3.75;3.75;;;;;9.43;96.36;100422.47;5047702;28;10262;-66
2024/01/22 10:08:32;;;;;;;;;7.25;5.75;;;;;9.33;97.43;100436.25;5044981;28;10309;-65
2024/01/22 10:10:59;;;;;;;;;9.00;8.00;;;;;9.29;97.29;100429.63;5029307;28;10465;-66
2024/01/22 10:13:26;;;;;;;;;6.00;5.50;;;;;9.35;96.71;100437.72;5045765;28;10258;-66
2024/01/22 10:15:53;;;;;;;;;4.50;3.50;;;;;9.49;96.54;100435.13;5029656;28;10383;-66
2024/01/22 10:18:19;;;;;;;;;7.75;5.00;;;;;9.60;95.89;100443.47;5031564;28;10253;-65
2024/01/22 10:20:49;;;;;;;;;5.00;4.50;;;;;9.59;95.71;100451.72;5040352;28;10202;-68
2024/01/22 10:23:16;;;;;;;;;8.00;4.25;;;;;9.65;95.21;100461.69;5048390;28;10176;-67
2024/01/22 10:25:43;;;;;;;;;11.50;6.00;;;;;9.65;95.25;100459.00;5046412;28;10111;-67
2024/01/22 10:28:10;;;;;;;;;2.75;2.75;;;;;9.65;94.50;100462.53;5050016;28;10194;-66
2024/01/22 10:30:38;;;;;;;;;5.25;2.75;;;;;9.69;94.50;100462.13;5042756;28;10151;-68
2024/01/22 10:33:10;;;;;;;;;9.50;3.50;;;;;9.64;94.26;100477.00;5035256;28;10081;-68
2024/01/22 10:35:37;;;;;;;;;8.25;5.50;;;;;9.60;93.17;100464.97;5037606;28;10146;-67
2024/01/22 10:38:16;;;;;;;;;29.00;24.75;;;;;9.60;94.02;100467.66;5048054;28;10324;-66
2024/01/22 10:40:45;;;;;;;;;3.00;2.00;;;;;9.74;93.30;100481.16;5044570;28;10798;-67
2024/01/22 10:43:20;;;;;;;;;4.25;4.00;;;;;9.84;92.43;100482.50;5030649;28;9900;-66
2024/01/22 10:45:48;;;;;;;;;3.75;1.75;;;;;9.81;92.07;100485.56;5034385;28;9935;-68
2024/01/22 10:48:18;;;;;;;;;4.50;3.00;;;;;9.75;92.48;100470.22;5044890;28;10078;-66
2024/01/22 10:51:01;;;;;;;;;8.00;3.50;;;;;9.75;92.04;100475.59;5034160;28;10168;-67
2024/01/22 10:53:28;;;;;;;;;9.00;5.25;;;;;9.82;92.05;100491.75;5039359;28;10018;-67
2024/01/22 10:56:01;;;;;;;;;4.75;3.75;;;;;9.83;92.09;100496.09;5055755;28;9923;-68
2024/01/22 10:58:39;;;;;;;;;6.25;4.50;;;;;9.79;91.68;100489.47;5044300;28;10089;-67
2024/01/22 11:01:15;;;;;;;;;3.50;1.75;;;;;9.89;91.53;100508.78;5046110;28;10121;-68
2024/01/22 11:03:48;;;;;;;;;5.25;3.00;;;;;9.82;90.95;100506.03;5038606;28;10686;-66
2024/01/22 11:06:22;;;;;;;;;4.75;4.75;;;;;9.79;90.86;100509.09;5026682;28;10183;-68
2024/01/22 11:08:54;;;;;;;;;3.75;2.25;;;;;9.77;91.42;100526.47;5041369;28;10271;-69
2024/01/22 11:11:24;;;;;;;;;5.25;5.25;;;;;9.72;90.12;100529.72;5033421;28;10131;-68
2024/01/22 11:13:55;;;;;;;;;6.00;3.00;;;;;9.70;89.44;100518.38;5047690;28;10183;-66
2024/01/22 11:16:22;;;;;;;;;5.00;2.50;;;;;9.61;89.44;100525.75;5048676;28;10141;-66
2024/01/22 11:19:00;;;;;;;;;3.75;3.75;;;;;9.68;88.93;100533.00;5050641;28;10097;-67
2024/01/22 11:21:39;;;;;;;;;3.50;3.50;;;;;9.80;89.13;100532.31;5050996;28;10097;-68